Latest Weather Observations for Gingin Airport

IDW60801

Issued at 9:35 am WST Saturday 20 September 2014 (issued every 30 minutes, with the page automatically refreshed every 10 minutes)

About weather observations | Map of weather stations | Latest weather observations for WA | Other Formats
Station Details ID: 009178 Name: GINGIN AERO Lat: -31.46 Lon: 115.86 Height: 73.0 m
Data from the previous 72 hours. | See also: Recent months at Gingin Airport
Date/Time
WST
Temp
°C
App
Temp
°C
Dew
Point
Rel
Hum
%
Delta-T
°C
Wind Press
QNH
hPa
Press
MSL
hPa
Rain
since 9 am
mm
Dir
 
Spd
km/h
Gust
km/h
Spd
kts
Gust
kts
20/09:34am 24.6 18.1 9.0 37 8.5 NE 33 52 18 28 1013.9 1013.9 0.0
20/09:30am 24.3 17.3 8.3 36 8.6 NE 35 52 19 28 1014.0 1014.0 0.0
20/09:20am 24.0 17.3 8.0 36 8.5 NE 33 52 18 28 1014.1 1014.1 0.0
20/09:00am 23.5 17.0 8.8 39 7.9 NE 33 48 18 26 1014.2 1014.2 0.0
20/08:30am 21.5 15.5 8.7 44 6.8 NE 30 41 16 22 1014.4 1014.4 0.0
20/08:00am 20.2 13.1 8.2 46 6.2 NE 35 48 19 26 1014.6 1014.6 0.0
20/07:30am 19.2 13.5 8.2 49 5.7 NE 28 37 15 20 1014.8 1014.8 0.0
20/07:00am 17.8 12.9 8.4 54 4.8 ENE 24 30 13 16 1014.8 1014.8 0.0
20/06:30am 15.2 11.7 8.7 65 3.3 ENE 17 24 9 13 1014.9 1014.9 0.0
20/06:00am 14.4 11.0 9.2 71 2.7 E 17 19 9 10 1015.0 1015.0 0.0
20/05:30am 14.9 10.7 9.7 71 2.7 E 22 28 12 15 1015.1 1015.1 0.0
20/05:00am 14.4 10.8 10.6 78 2.0 E 20 26 11 14 1015.3 1015.3 0.0
20/04:30am 13.6 10.8 11.3 86 1.2 E 17 20 9 11 1015.5 1015.5 0.0
20/04:00am 12.8 10.9 11.9 94 0.5 E 13 17 7 9 1015.9 1015.9 0.0
20/03:30am 11.7 10.9 11.7 100 0.0 E 7 11 4 6 1016.1 1016.1 0.0
20/03:00am 9.0 7.5 9.0 100 0.0 ESE 7 9 4 5 1016.6 1016.6 0.0
20/02:30am 8.5 7.4 8.5 100 0.0 ESE 4 7 2 4 1016.8 1016.8 0.0
20/02:00am 9.6 8.4 9.6 100 0.0 ESE 6 9 3 5 1016.6 1016.6 0.0
20/01:30am 10.6 9.7 10.6 100 0.0 SE 6 6 3 3 1017.2 1017.1 0.0
20/01:00am 12.1 11.0 12.1 100 0.0 SE 9 11 5 6 1017.6 1017.5 0.0
20/12:30am 12.3 11.7 12.3 100 0.0 SE 7 7 4 4 1018.0 1017.9 0.0
20/12:00am 12.6 12.1 12.6 100 0.0 ESE 7 9 4 5 1018.2 1018.1 0.0
 
Date/Time
WST
Temp
°C
App
Temp
°C
Dew
Point
Rel
Hum
%
Delta-T
°C
Wind Press
QNH
hPa
Press
MSL
hPa
Rain
since 9 am
mm
Dir
 
Spd
km/h
Gust
km/h
Spd
kts
Gust
kts
19/11:30pm 12.1 12.0 12.1 100 0.0 ESE 4 6 2 3 1018.6 1018.5 0.0
19/11:00pm 12.4 12.0 12.4 100 0.0 ESE 6 7 3 4 1018.9 1018.8 0.0
19/10:30pm 14.4 13.3 14.4 100 0.0 SE 13 15 7 8 1019.2 1019.1 0.0
19/10:00pm 13.8 13.3 13.8 100 0.0 SSE 9 13 5 7 1019.6 1019.5 0.0
19/09:30pm 14.2 13.8 14.2 100 0.0 SSE 9 11 5 6 1019.9 1019.8 0.0
19/09:00pm 14.4 13.9 13.9 97 0.3 SSE 9 11 5 6 1020.1 1020.0 0.0
19/08:30pm 15.5 15.5 14.2 92 0.7 S 7 9 4 5 1020.3 1020.3 0.0
19/08:00pm 16.3 16.6 14.5 89 1.0 S 6 7 3 4 1020.2 1020.1 0.0
19/07:30pm 17.0 16.7 14.3 84 1.5 S 9 13 5 7 1020.1 1020.0 0.0
19/07:00pm 17.8 17.0 14.1 79 2.1 SSW 11 15 6 8 1019.9 1019.8 0.0
19/06:30pm 19.1 17.9 14.1 73 2.9 SSW 13 15 7 8 1019.8 1019.7 0.0
19/06:00pm 20.5 18.9 13.9 66 3.8 SW 15 17 8 9 1019.7 1019.6 0.0
19/05:30pm 21.8 19.4 13.9 61 4.6 SSW 19 22 10 12 1019.5 1019.4 0.0
19/05:00pm 22.9 21.2 13.7 56 5.4 S 15 19 8 10 1019.2 1019.1 0.0
19/04:30pm 24.9 23.4 10.4 40 8.1 ESE 9 19 5 10 1019.0 1018.9 0.0
19/04:00pm 24.6 22.6 11.5 44 7.4 SE 13 24 7 13 1019.1 1019.0 0.0
19/03:30pm 24.8 23.2 11.4 43 7.6 ESE 11 19 6 10 1019.1 1019.0 0.0
19/03:00pm 25.1 22.1 12.0 44 7.5 SSE 19 24 10 13 1019.2 1019.1 0.0
19/02:30pm 24.9 23.7 11.5 43 7.6 SSE 9 19 5 10 1019.5 1019.4 0.0
19/02:00pm 24.7 24.0 10.2 40 8.0 ESE 4 11 2 6 1019.8 1019.7 0.0
19/01:30pm 24.3 23.8 11.9 45 7.1 E 6 13 3 7 1020.1 1020.0 0.0
19/01:00pm 23.4 21.5 10.5 44 7.1 SE 11 19 6 10 1020.5 1020.5 0.0
19/12:30pm 23.5 20.8 8.8 39 7.9 ESE 13 20 7 11 1021.0 1021.0 0.0
19/12:00pm 22.9 20.6 11.6 49 6.3 ESE 15 24 8 13 1021.5 1021.5 0.0
19/11:30am 22.2 20.4 12.2 53 5.7 SSE 13 24 7 13 1022.0 1022.0 0.0
19/11:00am 21.6 19.8 12.2 55 5.3 SE 13 22 7 12 1022.3 1022.3 0.0
19/10:30am 21.0 19.2 13.2 61 4.5 S 15 22 8 12 1022.6 1022.6 0.0
19/10:00am 20.2 18.1 13.6 66 3.8 SSE 17 26 9 14 1022.8 1022.8 0.0
19/09:30am 19.6 18.0 14.0 70 3.2 SSE 15 24 8 13 1023.0 1023.0 0.0
19/09:00am 18.5 17.9 14.6 78 2.3 SSE 11 17 6 9 1023.0 1023.0 0.0
19/08:30am 17.7 18.0 15.9 89 1.1 ESE 9 13 5 7 1023.0 1023.0 0.0
19/08:00am 15.3 15.7 15.3 100 0.0 ESE 7 11 4 6 1022.6 1022.6 0.0
19/07:30am 13.2 14.2 13.2 100 0.0 CALM 0 0 0 0 1022.4 1022.4 0.0
19/07:00am 9.6 9.5 9.6 100 0.0 CALM 0 0 0 0 1022.2 1022.2 0.0
19/06:30am 8.2 7.8 8.2 100 0.0 CALM 0 0 0 0 1021.8 1021.8 0.0
19/06:00am 8.6 8.3 8.6 100 0.0 CALM 0 0 0 0 1021.5 1021.5 0.0
19/05:30am 9.3 9.2 9.3 100 0.0 CALM 0 0 0 0 1021.3 1021.3 0.0
19/05:00am 9.8 9.8 9.8 100 0.0 CALM 0 4 0 2 1021.0 1021.0 0.0
19/04:30am 11.5 10.6 11.5 100 0.0 SE 7 9 4 5 1020.9 1020.9 0.0
19/04:00am 12.7 12.4 12.7 100 0.0 SE 6 7 3 4 1020.7 1020.7 0.0
19/03:30am 13.4 13.3 13.4 100 0.0 SE 6 7 3 4 1020.7 1020.7 0.0
19/03:00am 13.8 13.9 13.8 100 0.0 SE 6 7 3 4 1020.8 1020.8 0.0
19/02:30am 14.1 14.3 14.1 100 0.0 SE 6 7 3 4 1020.9 1020.9 0.0
19/02:00am 13.9 14.0 13.9 100 0.0 SE 6 6 3 3 1020.9 1020.9 0.0
19/01:30am 14.2 14.2 14.2 100 0.0 SSE 7 9 4 5 1021.0 1021.0 0.0
19/01:00am 13.5 12.9 13.5 100 0.0 S 9 9 5 5 1021.1 1021.1 0.0
19/12:30am 11.7 12.2 11.7 100 0.0 CALM 0 7 0 4 1021.1 1021.1 0.0
19/12:00am 12.4 13.2 12.4 100 0.0 CALM 0 0 0 0 1021.0 1021.0 0.0
 
Date/Time
WST
Temp
°C
App
Temp
°C
Dew
Point
Rel
Hum
%
Delta-T
°C
Wind Press
QNH
hPa
Press
MSL
hPa
Rain
since 9 am
mm
Dir
 
Spd
km/h
Gust
km/h
Spd
kts
Gust
kts
18/11:30pm 14.0 14.5 14.0 100 0.0 S 4 6 2 3 1021.1 1021.1 0.0
18/11:00pm 14.3 14.3 14.1 99 0.1 S 7 9 4 5 1021.2 1021.2 0.0
18/10:30pm 14.9 16.0 14.6 98 0.2 S 2 6 1 3 1021.2 1021.2 0.0
18/10:00pm 15.4 15.6 14.6 95 0.5 SSW 7 11 4 6 1021.3 1021.3 0.0
18/09:30pm 15.8 16.2 14.7 93 0.6 S 6 7 3 4 1021.1 1021.1 0.0
18/09:00pm 15.7 15.9 14.6 93 0.6 SSE 7 9 4 5 1020.9 1020.9 0.0
18/08:30pm 16.4 15.8 14.6 89 1.0 S 11 17 6 9 1020.9 1020.9 0.0
18/08:00pm 16.9 15.6 14.7 87 1.3 SSW 15 26 8 14 1020.6 1020.6 0.0
18/07:30pm 17.1 15.2 15.3 89 1.1 SSW 19 30 10 16 1020.2 1020.1 0.0
18/07:00pm 17.0 15.2 15.5 91 0.9 SSW 19 28 10 15 1019.7 1019.6 0.0
18/06:30pm 17.4 16.0 15.6 89 1.1 SSW 17 26 9 14 1019.3 1019.2 0.0
18/06:00pm 17.9 16.0 15.3 85 1.5 SW 19 24 10 13 1018.9 1018.8 0.0
18/05:30pm 18.6 16.1 15.1 80 2.1 SW 22 28 12 15 1018.5 1018.4 0.0
18/05:00pm 19.7 16.4 14.9 74 2.8 SW 26 32 14 17 1018.0 1017.9 0.0
18/04:30pm 20.7 17.1 14.1 66 3.8 SSW 26 33 14 18 1017.7 1017.6 0.0
18/04:00pm 21.8 16.0 9.3 45 6.7 SW 30 37 16 20 1017.4 1017.3 0.0
18/03:30pm 22.7 16.9 8.0 39 7.7 SSW 28 33 15 18 1016.8 1016.8 0.0
18/03:00pm 22.8 18.0 11.8 50 6.2 SW 28 35 15 19 1016.9 1016.9 0.0
18/02:30pm 22.7 18.3 12.9 54 5.6 SW 28 35 15 19 1016.7 1016.7 0.0
18/02:00pm 23.9 20.7 13.2 51 6.2 SW 22 32 12 17 1016.5 1016.5 0.0
18/01:30pm 23.5 19.4 12.8 51 6.2 SSW 26 37 14 20 1016.6 1016.6 0.0
18/01:00pm 24.4 20.8 13.0 49 6.6 SW 24 32 13 17 1016.5 1016.5 0.0
18/12:30pm 23.9 20.3 11.9 47 6.8 SW 22 30 12 16 1016.4 1016.4 0.0
18/12:00pm 24.1 21.1 12.1 47 6.8 SW 19 26 10 14 1016.7 1016.7 0.0
18/11:30am 24.0 21.0 12.0 47 6.8 SSW 19 26 10 14 1016.9 1016.9 0.0
18/11:00am 23.2 20.3 12.2 50 6.3 S 19 28 10 15 1017.0 1017.0 0.0
18/10:30am 22.8 18.6 11.2 48 6.5 SSW 24 32 13 17 1017.5 1017.4 0.0
18/10:00am 21.5 18.7 11.5 53 5.6 S 17 24 9 13 1017.4 1017.3 0.0
18/09:30am 19.9 18.4 13.1 65 3.9 S 13 17 7 9 1017.6 1017.5 0.0
18/09:00am 18.2 17.4 13.9 76 2.5 S 11 17 6 9 1017.5 1017.4 0.0
18/08:30am 15.7 15.9 15.7 100 0.0 S 9 13 5 7 1017.5 1017.4 0.0
18/08:00am 12.7 12.8 12.7 100 0.0 S 4 7 2 4 1017.4 1017.3 0.0
18/07:30am 10.2 10.3 10.2 100 0.0 CALM 0 0 0 0 1016.8 1016.8 0.0
18/07:00am 7.7 7.2 7.7 100 0.0 CALM 0 0 0 0 1016.6 1016.6 0.0
18/06:30am 6.1 4.1 6.1 100 0.0 SSE 6 7 3 4 1016.4 1016.4 0.0
18/06:00am 5.9 5.0 5.9 100 0.0 CALM 0 0 0 0 1016.3 1016.3 0.0
18/05:30am 6.1 5.2 6.1 100 0.0 CALM 0 0 0 0 1016.1 1016.1 0.0
18/05:00am 6.8 6.1 6.8 100 0.0 CALM 0 0 0 0 1015.9 1015.9 0.0
18/04:30am 6.8 6.1 6.8 100 0.0 CALM 0 0 0 0 1015.7 1015.7 0.0
18/04:00am 7.1 6.4 7.1 100 0.0 CALM 0 0 0 0 1015.6 1015.6 0.0
18/03:30am 7.1 6.0 7.1 100 0.0 SSE 2 7 1 4 1015.6 1015.6 0.0
18/03:00am 7.7 6.4 7.7 100 0.0 SSE 4 9 2 5 1015.5 1015.5 0.0
18/02:30am 7.8 6.9 7.8 100 0.0 SSE 2 6 1 3 1015.6 1015.6 0.0
18/02:00am 8.1 7.7 8.1 100 0.0 CALM 0 2 0 1 1015.6 1015.6 0.0
18/01:30am 8.7 7.3 8.7 100 0.0 SSE 6 7 3 4 1015.6 1015.6 0.0
18/01:00am 9.6 9.5 9.6 100 0.0 CALM 0 0 0 0 1015.7 1015.7 0.0
18/12:30am 9.9 9.9 9.9 100 0.0 CALM 0 0 0 0 1015.9 1015.9 0.0
18/12:00am 10.5 10.7 10.5 100 0.0 CALM 0 0 0 0 1016.1 1016.1 0.0
 
Date/Time
WST
Temp
°C
App
Temp
°C
Dew
Point
Rel
Hum
%
Delta-T
°C
Wind Press
QNH
hPa
Press
MSL
hPa
Rain
since 9 am
mm
Dir
 
Spd
km/h
Gust
km/h
Spd
kts
Gust
kts
17/11:30pm 11.1 11.5 11.1 100 0.0 CALM 0 0 0 0 1016.3 1016.3 0.0
17/11:00pm 12.5 12.1 12.3 99 0.1 SSE 6 7 3 4 1016.3 1016.3 0.0
17/10:30pm 13.2 12.8 12.3 94 0.5 SSE 6 7 3 4 1016.6 1016.6 0.0
17/10:00pm 15.0 14.6 14.0 94 0.6 SSW 9 13 5 7 1016.6 1016.6 0.0
17/09:30pm 15.4 14.5 13.6 89 1.0 S 11 13 6 7 1016.6 1016.6 0.0
17/09:00pm 15.8 15.1 13.1 84 1.5 S 9 13 5 7 1016.3 1016.3 0.0
17/08:30pm 16.4 15.2 12.9 80 2.0 SSW 11 17 6 9 1016.0 1016.0 0.0
17/08:00pm 17.1 15.1 12.6 75 2.5 SSW 15 19 8 10 1015.7 1015.7 0.0
17/07:30pm 17.7 15.7 12.6 72 2.8 SSW 15 22 8 12 1015.2 1015.2 0.0
17/07:00pm 18.3 15.5 12.5 69 3.2 SSW 19 24 10 13 1014.8 1014.8 0.0
17/06:30pm 19.0 16.1 12.3 65 3.7 SSW 19 24 10 13 1014.4 1014.4 0.0
17/06:00pm 20.3 16.5 12.3 60 4.5 SSW 24 32 13 17 1014.2 1014.2 0.0
17/05:30pm 21.3 17.6 12.7 58 4.9 SSW 24 32 13 17 1013.9 1013.9 0.0
17/05:00pm 23.4 19.6 12.4 50 6.3 SW 24 32 13 17 1013.3 1013.3 0.0
17/04:30pm 24.8 20.7 11.4 43 7.6 SSW 24 32 13 17 1012.9 1012.9 0.0
17/04:00pm 25.4 20.6 11.6 42 7.9 SSW 28 35 15 19 1012.7 1012.7 0.0
17/03:30pm 25.3 21.2 11.5 42 7.8 SSW 24 32 13 17 1012.5 1012.5 0.0
17/03:00pm 25.8 21.4 11.6 41 8.1 SSW 26 32 14 17 1012.6 1012.6 0.0
17/02:30pm 26.1 21.9 12.5 42 7.9 SW 26 33 14 18 1012.5 1012.5 0.0
17/02:00pm 26.0 22.6 11.4 40 8.3 SSW 20 32 11 17 1012.6 1012.6 0.0
17/01:30pm 26.9 24.8 9.7 34 9.6 SE 11 19 6 10 1012.6 1012.6 0.0
17/01:00pm 26.3 24.2 9.6 35 9.2 SSE 11 19 6 10 1012.9 1012.9 0.0
17/12:30pm 26.5 25.1 9.4 34 9.4 N 7 17 4 9 1013.2 1013.2 0.0
17/12:00pm 25.8 23.4 8.8 34 9.2 E 11 19 6 10 1013.6 1013.6 0.0
17/11:30am 24.9 23.4 8.4 35 8.9 NE 6 11 3 6 1014.1 1014.1 0.0
17/11:00am 24.0 21.6 8.8 38 8.2 S 11 17 6 9 1014.8 1014.8 0.0
17/10:30am 23.3 20.9 10.0 43 7.3 S 13 22 7 12 1015.0 1015.0 0.0
17/10:00am 22.4 20.1 10.5 47 6.5 S 13 19 7 10 1015.3 1015.3 0.0

Other Formats:

Comma delimited format used in spreadsheet applications
http://www.bom.gov.au/fwo/IDW60801/IDW60801.95612.axf

JavaScript Object Notation format (JSON) in row-major order
http://www.bom.gov.au/fwo/IDW60801/IDW60801.95612.json